This demonstration page uses our WeatherBlox Daily Observations layout. Learn more.

41.55636, -103.73856

Hourly Observations for January 1, 2019

Temp ( °F °C ) Dew Point ( °F °C ) Humidity (%) Winds ( mph kmh ) Pressure ( in mb ) Visibility ( mi km ) Precip ( " mm )
12:37 am 00:37 Cloudy with Light Snow 8 -13.3 3 -16.1 80 80 Calm 30.68 1039 2 3.218688 0.001 0.001
12:53 am 00:53 Cloudy with Light Snow 8 -13.3 3 -16.1 80 80 ENE 3 6 30.5 1033 3 4.828032 0.001 0.001
1:53 am 01:53 Cloudy with Light Snow 7 -13.9 3 -16.1 84 84 Calm 30.53 1034 2.5 4.02336 0.01 0.254
2:25 am 02:25 Cloudy with Light Snow 7 -13.9 3 -16.1 84 84 ESE 3 6 30.68 1039 4 6.437376 0.001 0.001
2:53 am 02:53 Cloudy 5 -15 2 -16.7 87 87 Calm 30.53 1034 7 11.265408 0.001 0.001
3:22 am 03:22 Mostly Cloudy 3 -16 1 -17 92 92 Calm 30.68 1039 9 14.484096 0 0
3:31 am 03:31 Partly Cloudy 4 -15.6 1 -17.2 88 88 SE 3 6 30.68 1039 10 16.09344 0 0
3:53 am 03:53 Clear 4 -15.6 2 -16.7 91 91 SSE 3 6 30.5 1033 10 16.09344 0 0
4:53 am 04:53 Clear 1 -17.2 -1 -18.3 91 91 S 7 11 30.5 1033 10 16.09344 0 0
5:53 am 05:53 Clear 0 -17.8 -3 -19.4 87 87 SSW 3 6 30.5 1033 10 16.09344 0 0
6:53 am 06:53 Clear -1 -18.3 -4 -20 87 87 S 5 7 30.5 1033 10 16.09344 0 0
7:53 am 07:53 Sunny -2 -18.9 -6 -21.1 83 83 E 3 6 30.5 1033 10 16.09344 0 0
8:53 am 08:53 Sunny 4 -15.6 2 -16.7 91 91 Calm 30.48 1032 10 16.09344 0 0
9:53 am 09:53 Sunny 9 -12.8 4 -15.6 80 80 S 5 7 30.48 1032 10 16.09344 0 0
10:53 am 10:53 Sunny 13 -10.6 3 -16.1 64 64 S 5 7 30.39 1029 10 16.09344 0 0
11:53 am 11:53 Sunny 14 -10 3 -16.1 61 61 VRB 5 7 30.36 1028 10 16.09344 0 0
12:53 pm 12:53 Sunny 16 -8.9 3 -16.1 56 56 SSW 9 15 30.3 1026 10 16.09344 0 0
1:53 pm 13:53 Sunny 17 -8.3 3 -16.1 54 54 SW 10 17 30.27 1025 10 16.09344 0 0
2:53 pm 14:53 Sunny 17 -8.3 3 -16.1 54 54 S 13 20 30.24 1024 10 16.09344 0 0
3:53 pm 15:53 Sunny 16 -8.9 4 -15.6 59 59 S 8 13 30.24 1024 10 16.09344 0 0
4:53 pm 16:53 Clear 13 -10.6 4 -15.6 67 67 SSW 5 7 30.27 1025 10 16.09344 0 0
5:53 pm 17:53 Clear 6 -14.4 0 -17.8 76 76 SE 3 6 30.3 1026 10 16.09344 0 0
6:53 pm 18:53 Clear 5 -15 0 -17.8 79 79 S 3 6 30.3 1026 10 16.09344 0 0
7:53 pm 19:53 Clear 6 -14.4 0 -17.8 76 76 WNW 6 9 30.3 1026 10 16.09344 0 0
8:53 pm 20:53 Clear 1 -17.2 -3 -19.4 83 83 NNW 7 11 30.27 1025 10 16.09344 0 0
9:53 pm 21:53 Clear 2 -16.7 -3 -19.4 80 80 WNW 3 6 30.24 1024 10 16.09344 0 0
10:53 pm 22:53 Clear 1 -17.2 -3 -19.4 83 83 NW 12 19 30.21 1023 10 16.09344 0 0
11:53 pm 23:53 Clear 2 -16.7 -2 -18.9 83 83 NW 10 17 30.24 1024 10 16.09344 0 0

Powered by AerisWeather